Terminal Aerodrome Forecast
Issued by NWS

Home | Current Version | Previous Version | Text Only | Print | Product List | Glossary On
Versions: 1 2 3 4 5 6 7 8 9 10 11 12
868
FTUS42 TJSJ 242342
TAFJMZ
TAF
TJMZ 242342Z 2500/2524 06005KT P6SM FEW050
     FM251530 06012KT P6SM VCSH SCT025 BKN040
     FM252300 08007KT P6SM FEW060
      AMD NOT SKED=

USA.gov is the U.S. government's official web portal to all federal, state and local government web resources and services.